Time;durP1;ratioP1;P1;durP2;ratioP2;P2;SDS_P1;SDS_P2;PMS_P1;PMS_P2;Temp;Humidity;BMP_temperature;BMP_pressure;BME280_temperature;BME280_humidity;BME280_pressure;Samples;Min_cycle;Max_cycle;Signal;HPM_P1;HPM_P2
2021/09/21 00:00:39;;;;;;;;;50.67;41.33;;;;;14.96;79.42;102001.13;5049689;28;45431;-75
2021/09/21 00:03:04;;;;;;;;;44.33;37.00;;;;;14.99;79.77;102002.59;5053086;28;45299;-75
2021/09/21 00:05:30;;;;;;;;;47.33;38.00;;;;;14.97;79.25;101999.28;5050483;28;45379;-75
2021/09/21 00:07:55;;;;;;;;;46.00;38.67;;;;;15.01;79.11;102000.59;5053604;28;45437;-75
2021/09/21 00:10:20;;;;;;;;;44.67;37.00;;;;;15.01;79.52;101992.56;5052660;28;46677;-75
2021/09/21 00:12:46;;;;;;;;;38.67;35.00;;;;;15.02;79.25;101997.75;5057768;28;45637;-76
2021/09/21 00:15:15;;;;;;;;;42.00;35.67;;;;;15.08;79.57;102012.28;5051242;28;45487;-75
2021/09/21 00:17:41;;;;;;;;;46.33;39.00;;;;;15.07;79.07;102004.41;5055044;28;45429;-74
2021/09/21 00:20:08;;;;;;;;;44.67;38.33;;;;;15.09;79.31;102005.09;5055066;28;45524;-75
2021/09/21 00:22:33;;;;;;;;;48.33;41.00;;;;;15.11;79.29;102005.75;5051244;28;45735;-75
2021/09/21 00:24:59;;;;;;;;;47.33;39.33;;;;;15.08;79.16;102006.13;5074629;28;45275;-76
2021/09/21 00:27:25;;;;;;;;;45.00;38.00;;;;;15.11;78.78;102011.09;5054943;28;45489;-75
2021/09/21 00:29:51;;;;;;;;;46.33;38.67;;;;;15.10;79.46;102018.31;5059394;28;46179;-75
2021/09/21 00:32:19;;;;;;;;;41.00;35.00;;;;;15.09;79.03;102026.50;5061785;28;45954;-75
2021/09/21 00:34:45;;;;;;;;;45.67;38.33;;;;;15.07;77.85;102028.53;5067199;28;45387;-75
2021/09/21 00:37:14;;;;;;;;;43.75;37.00;;;;;15.05;78.05;102033.22;5056592;28;45495;-75
2021/09/21 00:39:41;;;;;;;;;44.67;38.33;;;;;15.02;77.79;102034.38;5054837;28;45474;-75
2021/09/21 00:42:08;;;;;;;;;43.00;37.00;;;;;14.98;78.31;102025.88;5061296;28;46153;-75
2021/09/21 00:44:34;;;;;;;;;44.00;37.00;;;;;14.97;78.09;102024.19;5055753;28;45335;-74
2021/09/21 00:47:01;;;;;;;;;47.67;39.00;;;;;14.89;78.38;102018.88;5051750;28;45330;-75
2021/09/21 00:49:26;;;;;;;;;43.00;36.33;;;;;14.85;78.38;102025.59;5050554;28;45445;-75
2021/09/21 00:51:52;;;;;;;;;42.33;36.00;;;;;14.81;78.35;102030.44;5057975;28;45373;-75
2021/09/21 00:54:17;;;;;;;;;43.67;36.33;;;;;14.75;78.19;102029.25;5053247;28;45432;-75
2021/09/21 00:56:43;;;;;;;;;42.67;36.33;;;;;14.68;78.76;102027.41;5060671;28;45474;-75
2021/09/21 00:59:08;;;;;;;;;44.67;36.67;;;;;14.67;78.26;102039.13;5054258;28;46243;-75
2021/09/21 01:01:33;;;;;;;;;40.33;35.00;;;;;14.62;78.50;102036.97;5057239;28;45378;-74
2021/09/21 01:04:01;;;;;;;;;45.00;36.00;;;;;14.58;78.60;102038.31;5057308;28;45398;-75
2021/09/21 01:06:26;;;;;;;;;47.00;37.00;;;;;14.54;78.03;102037.81;5049960;28;47108;-74
2021/09/21 01:08:52;;;;;;;;;40.67;34.33;;;;;14.45;78.28;102038.81;5057378;28;46099;-75
2021/09/21 01:11:17;;;;;;;;;38.00;33.67;;;;;14.42;78.36;102041.84;5052448;28;45635;-75
2021/09/21 01:13:42;;;;;;;;;40.33;33.67;;;;;14.39;78.31;102032.28;5058808;28;45453;-75
2021/09/21 01:16:08;;;;;;;;;39.00;34.67;;;;;14.34;78.61;102030.13;5048151;28;45624;-76
2021/09/21 01:18:34;;;;;;;;;43.00;35.00;;;;;14.27;78.51;102027.31;5071630;28;47346;-75
2021/09/21 01:21:05;;;;;;;;;46.00;38.00;;;;;14.26;77.86;102028.31;5055882;28;45331;-75
2021/09/21 01:23:32;;;;;;;;;45.33;37.00;;;;;14.26;78.15;102035.50;5055929;28;45360;-75
2021/09/21 01:25:57;;;;;;;;;44.33;37.00;;;;;14.24;78.16;102038.31;5053980;28;45295;-75
2021/09/21 01:28:23;;;;;;;;;43.67;35.33;;;;;14.20;77.92;102046.84;5055252;28;45378;-75
2021/09/21 01:30:48;;;;;;;;;44.33;36.67;;;;;14.19;78.11;102045.19;5066385;28;45448;-75
2021/09/21 01:33:20;;;;;;;;;43.67;37.00;;;;;14.18;77.89;102046.16;5054177;28;45286;-75
2021/09/21 01:35:45;;;;;;;;;46.33;36.00;;;;;14.12;78.23;102048.50;5057890;28;45336;-75
2021/09/21 01:38:10;;;;;;;;;36.00;31.67;;;;;14.11;77.93;102046.00;5059062;28;45300;-75
2021/09/21 01:40:36;;;;;;;;;46.67;38.67;;;;;14.07;78.14;102044.66;5054030;28;45461;-75
2021/09/21 01:43:01;;;;;;;;;47.33;36.67;;;;;14.07;78.45;102052.69;5057508;28;45371;-75
2021/09/21 01:45:26;;;;;;;;;44.33;36.67;;;;;14.08;78.05;102065.91;5053834;28;45189;-75
2021/09/21 01:47:52;;;;;;;;;43.33;37.00;;;;;14.07;77.77;102068.72;5054207;28;46006;-75
2021/09/21 01:55:21;;;;;;;;;43.33;35.33;;;;;13.94;77.71;102075.38;5053706;28;45451;-75
2021/09/21 02:00:31;;;;;;;;;43.00;34.67;;;;;13.90;78.11;102060.69;5056023;28;45249;-75
2021/09/21 02:02:56;;;;;;;;;45.00;37.00;;;;;13.88;77.75;102068.00;5055258;28;45385;-75
2021/09/21 02:05:22;;;;;;;;;37.33;32.67;;;;;13.86;77.92;102073.53;5052497;28;45957;-75
2021/09/21 02:07:47;;;;;;;;;42.00;35.33;;;;;13.81;77.93;102059.84;5054191;28;46060;-75
2021/09/21 02:10:12;;;;;;;;;42.33;35.00;;;;;13.83;78.29;102075.69;5055585;28;45341;-75
2021/09/21 02:12:38;;;;;;;;;38.33;34.33;;;;;13.79;78.16;102075.19;5054331;28;45384;-75
2021/09/21 02:15:05;;;;;;;;;43.67;37.00;;;;;13.76;78.18;102067.50;5048796;28;45391;-75
2021/09/21 02:17:30;;;;;;;;;37.00;33.33;;;;;13.75;78.34;102073.84;5053333;28;46178;-75
2021/09/21 02:19:55;;;;;;;;;42.67;35.67;;;;;13.73;78.15;102063.31;5053255;28;45471;-74
2021/09/21 02:22:21;;;;;;;;;44.00;37.67;;;;;13.69;77.94;102063.81;5054149;28;45553;-75
2021/09/21 02:24:46;;;;;;;;;42.33;36.00;;;;;13.72;78.17;102076.84;5048994;28;45486;-75
2021/09/21 02:27:12;;;;;;;;;44.75;37.75;;;;;13.70;78.24;102077.00;5059404;28;45382;-75
2021/09/21 02:29:37;;;;;;;;;45.00;37.25;;;;;13.70;77.95;102087.69;5056706;28;45313;-75
2021/09/21 02:32:03;;;;;;;;;45.67;37.67;;;;;13.68;78.02;102087.00;5059603;28;45300;-74
2021/09/21 02:34:28;;;;;;;;;46.67;38.33;;;;;13.67;78.08;102090.66;5052870;28;45417;-75
2021/09/21 02:36:54;;;;;;;;;42.50;35.25;;;;;13.67;77.99;102088.00;5058798;28;45996;-75
2021/09/21 02:39:19;;;;;;;;;43.67;36.67;;;;;13.66;78.11;102088.16;5059431;28;45331;-74
2021/09/21 02:41:45;;;;;;;;;45.00;37.75;;;;;13.69;78.18;102098.53;5059987;28;45232;-75
2021/09/21 02:44:10;;;;;;;;;50.25;39.00;;;;;13.67;77.98;102090.66;5058678;28;46187;-75
2021/09/21 02:46:35;;;;;;;;;45.00;36.67;;;;;13.66;77.77;102088.16;5059943;28;45542;-75
2021/09/21 02:49:01;;;;;;;;;46.50;38.00;;;;;13.69;77.98;102099.38;5059822;28;45157;-75
2021/09/21 02:51:26;;;;;;;;;46.00;38.25;;;;;13.69;78.06;102085.16;5059999;28;45443;-75
2021/09/21 02:53:52;;;;;;;;;48.25;39.25;;;;;13.70;77.93;102086.84;5059924;28;45354;-76
2021/09/21 02:56:17;;;;;;;;;47.75;39.75;;;;;13.69;77.62;102088.69;5059753;28;45294;-74
2021/09/21 02:58:42;;;;;;;;;48.00;40.50;;;;;13.65;78.08;102087.34;5059889;28;45260;-76
2021/09/21 03:01:08;;;;;;;;;48.00;39.67;;;;;13.62;78.24;102087.66;5058736;28;45370;-75
2021/09/21 03:03:42;;;;;;;;;49.00;39.50;;;;;13.63;78.47;102092.00;5059491;28;45549;-76
2021/09/21 03:06:18;;;;;;;;;49.75;41.75;;;;;13.63;78.08;102084.00;5059251;28;46525;-75
2021/09/21 03:08:43;;;;;;;;;47.50;39.25;;;;;13.63;78.06;102079.50;5059616;28;45311;-75
2021/09/21 03:18:56;;;;;;;;;45.67;39.00;;;;;13.69;78.55;102082.50;5059188;28;45327;-75
2021/09/21 03:21:22;;;;;;;;;49.00;40.00;;;;;13.68;77.89;102072.81;5059527;28;45367;-75
2021/09/21 03:23:47;;;;;;;;;45.67;39.33;;;;;13.69;78.50;102085.16;5057965;28;46317;-75
2021/09/21 03:26:13;;;;;;;;;48.50;39.50;;;;;13.70;78.05;102092.19;5059448;28;45556;-75
2021/09/21 03:28:38;;;;;;;;;47.00;39.00;;;;;13.69;78.21;102091.38;5059576;28;45211;-74
2021/09/21 03:31:04;;;;;;;;;49.33;41.67;;;;;13.68;78.10;102088.84;5074251;28;45449;-75
2021/09/21 03:33:29;;;;;;;;;48.25;39.25;;;;;13.67;78.26;102105.84;5079514;28;45264;-75
2021/09/21 03:35:54;;;;;;;;;50.75;42.00;;;;;13.68;78.11;102096.88;5077933;28;47436;-75
2021/09/21 03:38:20;;;;;;;;;51.00;42.75;;;;;13.67;77.93;102089.81;5079233;27;45530;-75
2021/09/21 03:40:45;;;;;;;;;49.50;40.25;;;;;13.66;78.17;102090.84;5079798;28;45302;-75
2021/09/21 03:43:11;;;;;;;;;49.75;41.00;;;;;13.67;77.80;102100.50;5079591;28;45438;-75
2021/09/21 03:45:37;;;;;;;;;50.25;40.00;;;;;13.63;78.01;102100.03;5079503;28;45729;-75
2021/09/21 03:48:02;;;;;;;;;53.50;43.50;;;;;13.63;78.10;102108.03;5082533;27;45519;-74
2021/09/21 03:50:28;;;;;;;;;52.75;42.75;;;;;13.61;77.73;102104.66;5081752;28;45266;-75
2021/09/21 03:52:53;;;;;;;;;46.00;37.00;;;;;13.60;77.91;102101.19;5082964;28;45305;-75
2021/09/21 03:55:20;;;;;;;;;51.50;42.00;;;;;13.57;77.87;102101.50;5081681;28;45615;-74
2021/09/21 03:57:45;;;;;;;;;52.75;44.75;;;;;13.54;77.15;102106.31;5083058;28;45297;-75
2021/09/21 04:00:12;;;;;;;;;51.50;42.25;;;;;13.55;77.56;102108.81;5082844;28;45349;-75
2021/09/21 04:02:38;;;;;;;;;55.25;45.25;;;;;13.50;77.13;102111.97;5081511;28;46276;-75
2021/09/21 04:05:03;;;;;;;;;53.00;43.00;;;;;13.52;77.71;102111.81;5082404;27;46206;-75
2021/09/21 04:07:29;;;;;;;;;53.50;43.50;;;;;13.48;77.72;102119.31;5082588;28;45338;-75
2021/09/21 04:09:54;;;;;;;;;51.25;42.75;;;;;13.52;77.83;102119.81;5082903;28;45969;-75
2021/09/21 04:12:20;;;;;;;;;51.50;43.00;;;;;13.52;77.46;102121.69;5082630;28;45274;-74
2021/09/21 04:14:45;;;;;;;;;51.75;42.50;;;;;13.49;77.25;102121.00;5082794;27;46113;-74
2021/09/21 04:17:10;;;;;;;;;54.75;44.25;;;;;13.49;76.89;102126.34;5082696;27;45177;-75
2021/09/21 04:19:36;;;;;;;;;54.50;43.25;;;;;13.47;77.24;102128.28;5082557;27;45335;-75
2021/09/21 04:22:01;;;;;;;;;56.00;44.50;;;;;13.44;77.14;102135.78;5081229;28;47450;-75
2021/09/21 04:24:26;;;;;;;;;53.75;42.75;;;;;13.39;77.18;102136.28;5082580;28;46159;-74
2021/09/21 04:26:52;;;;;;;;;54.00;44.00;;;;;13.38;77.48;102142.63;5082713;28;45325;-75
2021/09/21 04:29:17;;;;;;;;;53.00;44.75;;;;;13.34;77.18;102135.91;5082750;28;45472;-75
2021/09/21 04:31:44;;;;;;;;;53.75;44.00;;;;;13.31;77.42;102137.06;5041974;28;45346;-75
2021/09/21 04:34:13;;;;;;;;;55.25;44.75;;;;;13.33;77.31;102142.25;5041762;28;46089;-75
2021/09/21 04:36:39;;;;;;;;;52.25;42.75;;;;;13.29;77.48;102143.56;5041642;28;45386;-75
2021/09/21 04:39:05;;;;;;;;;52.50;43.00;;;;;13.21;77.03;102137.19;5041702;28;45350;-75
2021/09/21 04:41:30;;;;;;;;;51.00;42.00;;;;;13.22;77.28;102146.84;5041918;28;45242;-75
2021/09/21 04:43:56;;;;;;;;;57.00;45.50;;;;;13.21;77.33;102161.22;5040281;28;47308;-75
2021/09/21 04:46:21;;;;;;;;;56.50;45.75;;;;;13.21;77.17;102155.03;5041743;28;45261;-75
2021/09/21 04:48:47;;;;;;;;;54.50;44.50;;;;;13.16;77.23;102159.97;5040288;28;45418;-75
2021/09/21 04:51:12;;;;;;;;;54.50;43.75;;;;;13.12;77.15;102159.47;5041569;28;45530;-75
2021/09/21 04:53:37;;;;;;;;;54.50;43.25;;;;;13.08;77.08;102155.44;5041703;28;46189;-76
2021/09/21 04:56:03;;;;;;;;;58.50;46.75;;;;;12.99;77.19;102138.53;5041550;28;45374;-75
2021/09/21 04:58:28;;;;;;;;;54.25;44.25;;;;;13.00;77.22;102154.38;5041019;28;45380;-75
2021/09/21 05:00:54;;;;;;;;;56.50;45.50;;;;;12.97;77.08;102159.19;5041534;28;45417;-75
2021/09/21 05:03:20;;;;;;;;;57.50;46.50;;;;;12.94;77.15;102154.16;5041515;28;45358;-75
2021/09/21 05:05:45;;;;;;;;;56.50;46.00;;;;;12.88;77.12;102152.97;5041124;28;45336;-75
2021/09/21 05:08:11;;;;;;;;;55.75;45.25;;;;;12.86;77.18;102157.59;5040050;28;45321;-75
2021/09/21 05:10:36;;;;;;;;;59.25;47.50;;;;;12.83;77.22;102164.09;5041417;28;45572;-75
2021/09/21 05:13:02;;;;;;;;;59.75;46.50;;;;;12.76;77.38;102163.03;5041366;28;45462;-76
2021/09/21 05:15:27;;;;;;;;;59.50;47.75;;;;;12.75;77.09;102169.34;5041397;28;45666;-75
2021/09/21 05:17:52;;;;;;;;;58.00;46.00;;;;;12.73;77.13;102163.34;5040012;28;45435;-75
2021/09/21 05:20:18;;;;;;;;;57.00;46.50;;;;;12.69;77.66;102160.13;5040981;28;45256;-75
2021/09/21 05:22:50;;;;;;;;;60.00;46.50;;;;;12.65;77.65;102158.78;5041093;28;46128;-75
2021/09/21 05:25:16;;;;;;;;;60.75;49.00;;;;;12.67;77.01;102161.28;5023902;28;45892;-75
2021/09/21 05:27:42;;;;;;;;;59.00;47.75;;;;;12.61;77.44;102168.06;5041170;28;45194;-75
2021/09/21 05:30:07;;;;;;;;;58.50;47.00;;;;;12.59;76.93;102168.22;5054888;28;45235;-75
2021/09/21 05:32:33;;;;;;;;;57.25;47.25;;;;;12.56;77.40;102165.84;5081386;28;46050;-76
2021/09/21 05:34:58;;;;;;;;;58.50;47.75;;;;;12.54;77.05;102172.34;5081353;28;45301;-75
2021/09/21 05:37:26;;;;;;;;;55.50;45.25;;;;;12.50;77.15;102169.13;5081228;28;45203;-75
2021/09/21 05:39:51;;;;;;;;;51.00;41.00;;;;;12.46;77.16;102183.75;5081227;28;45234;-76
2021/09/21 05:42:16;;;;;;;;;54.00;44.25;;;;;12.45;77.07;102182.91;5079907;28;47543;-75
2021/09/21 05:44:42;;;;;;;;;54.50;43.50;;;;;12.40;77.29;102177.22;5081320;28;45458;-75
2021/09/21 05:47:09;;;;;;;;;54.00;45.00;;;;;12.40;76.94;102190.53;5081175;28;45402;-75
2021/09/21 05:49:36;;;;;;;;;57.25;46.25;;;;;12.38;76.92;102200.50;5080854;28;45500;-75
2021/09/21 05:52:01;;;;;;;;;53.50;44.25;;;;;12.33;76.68;102200.13;5080815;28;47168;-76
2021/09/21 05:54:27;;;;;;;;;51.00;43.00;;;;;12.32;76.98;102206.44;5079520;28;45288;-75
2021/09/21 05:56:52;;;;;;;;;49.75;41.25;;;;;12.22;76.82;102194.00;5081367;28;45148;-76
2021/09/21 05:59:18;;;;;;;;;56.50;44.00;;;;;12.25;76.88;102204.38;5081011;28;45262;-75
2021/09/21 06:01:43;;;;;;;;;59.25;47.25;;;;;12.27;77.21;102224.72;5080920;28;45230;-76
2021/09/21 06:04:10;;;;;;;;;60.25;49.00;;;;;12.25;77.28;102228.34;5080769;28;45226;-75
2021/09/21 06:06:36;;;;;;;;;55.25;45.50;;;;;12.25;77.34;102231.03;5081021;28;45239;-75
2021/09/21 06:09:01;;;;;;;;;53.50;44.25;;;;;12.22;77.14;102220.66;5080689;28;45224;-75
2021/09/21 06:11:33;;;;;;;;;55.00;45.00;;;;;12.25;76.88;102227.53;5079255;28;45678;-76
2021/09/21 06:13:59;;;;;;;;;59.50;48.00;;;;;12.24;77.16;102233.84;5080500;28;45166;-76
2021/09/21 06:16:25;;;;;;;;;59.00;47.75;;;;;12.24;77.33;102234.69;5057355;28;45260;-76
2021/09/21 06:18:50;;;;;;;;;51.00;42.25;;;;;12.26;76.66;102242.53;5060095;28;45300;-75
2021/09/21 06:21:16;;;;;;;;;48.00;40.00;;;;;12.22;76.98;102243.81;5059071;28;47194;-75
2021/09/21 06:23:41;;;;;;;;;48.75;41.50;;;;;12.21;76.56;102236.81;5060328;28;45347;-75
2021/09/21 06:26:07;;;;;;;;;52.75;42.25;;;;;12.22;76.62;102244.66;5060473;28;45578;-75
2021/09/21 06:28:32;;;;;;;;;51.50;41.75;;;;;12.21;76.60;102244.81;5060218;28;45331;-75
2021/09/21 06:30:57;;;;;;;;;45.50;38.75;;;;;12.21;76.24;102248.31;5074012;28;46550;-75
2021/09/21 06:33:24;;;;;;;;;51.50;40.75;;;;;12.21;76.53;102248.31;5080463;28;45322;-75
2021/09/21 06:35:50;;;;;;;;;48.50;40.50;;;;;12.21;76.40;102247.50;5080489;27;45343;-75
2021/09/21 06:38:15;;;;;;;;;49.50;39.00;;;;;12.22;76.14;102251.81;5080248;28;45292;-75
2021/09/21 06:40:41;;;;;;;;;48.50;40.50;;;;;12.20;75.89;102257.31;5078838;28;47206;-75
2021/09/21 06:43:07;;;;;;;;;46.25;37.75;;;;;12.22;76.41;102259.81;5079112;28;45364;-76
2021/09/21 06:45:32;;;;;;;;;51.25;42.00;;;;;12.24;76.74;102265.81;5080829;28;45468;-76
2021/09/21 06:47:57;;;;;;;;;42.50;36.25;;;;;12.23;76.47;102259.66;5081236;28;45324;-77
2021/09/21 06:50:23;;;;;;;;;44.67;37.00;;;;;12.28;75.84;102277.88;5079809;28;47112;-77
2021/09/21 06:52:48;;;;;;;;;43.75;35.75;;;;;12.30;75.94;102275.91;5080138;28;45317;-78
2021/09/21 06:55:14;;;;;;;;;47.75;39.00;;;;;12.31;76.28;102269.59;5078831;28;45263;-78
2021/09/21 06:57:41;;;;;;;;;44.75;37.75;;;;;12.38;75.90;102293.81;5080288;28;45288;-76
2021/09/21 07:00:10;;;;;;;;;43.67;36.33;;;;;12.36;76.20;102285.97;5077747;28;45595;-77
2021/09/21 07:02:36;;;;;;;;;43.75;37.25;;;;;12.28;75.31;102272.56;5050060;28;45412;-75
2021/09/21 07:05:02;;;;;;;;;40.67;35.33;;;;;12.40;75.09;102286.53;5052858;28;45288;-75
2021/09/21 07:07:27;;;;;;;;;41.00;34.33;;;;;12.40;75.05;102286.53;5055234;28;45474;-74
2021/09/21 07:09:53;;;;;;;;;39.00;34.00;;;;;12.40;75.15;102283.88;5057536;28;46026;-75
2021/09/21 07:12:18;;;;;;;;;37.67;33.67;;;;;12.45;74.74;102304.75;5056945;28;45892;-76
2021/09/21 07:14:44;;;;;;;;;38.33;34.00;;;;;12.43;75.20;102296.91;5052849;28;45332;-75
2021/09/21 07:17:09;;;;;;;;;45.75;37.25;;;;;12.41;74.76;102288.19;5062972;28;45603;-76
2021/09/21 07:19:35;;;;;;;;;62.25;50.00;;;;;12.43;74.30;102291.56;5057190;28;47750;-78
2021/09/21 07:22:00;;;;;;;;;46.75;39.25;;;;;12.46;74.24;102299.28;5053816;28;45270;-76
2021/09/21 07:24:27;;;;;;;;;37.00;32.25;;;;;12.44;73.77;102298.56;5055218;28;45514;-78
2021/09/21 07:26:52;;;;;;;;;44.50;37.00;;;;;12.44;74.44;102297.72;5052682;28;45512;-78
2021/09/21 07:29:18;;;;;;;;;41.00;34.75;;;;;12.41;74.36;102290.03;5055480;28;45995;-78
2021/09/21 07:31:44;;;;;;;;;33.00;30.33;;;;;12.52;74.10;102312.97;5050166;28;45364;-75
2021/09/21 07:34:10;;;;;;;;;39.33;31.67;;;;;12.55;74.48;102315.34;5056443;28;45349;-77
2021/09/21 07:36:36;;;;;;;;;34.67;31.33;;;;;12.57;74.54;102316.06;5054423;28;45532;-75
2021/09/21 07:39:03;;;;;;;;;35.00;32.00;;;;;12.62;74.54;102325.28;5045053;28;45351;-75
2021/09/21 07:41:28;;;;;;;;;35.33;32.67;;;;;12.68;73.22;102325.66;5055549;28;45594;-78
2021/09/21 07:43:53;;;;;;;;;39.67;34.00;;;;;12.66;73.59;102320.47;5048357;28;45529;-78
2021/09/21 07:46:19;;;;;;;;;33.33;31.00;;;;;12.73;73.77;102331.41;5049139;28;45555;-77
2021/09/21 07:48:45;;;;;;;;;38.33;32.33;;;;;12.70;73.32;102321.03;5050516;28;46128;-77
2021/09/21 07:51:10;;;;;;;;;42.00;35.25;;;;;12.78;73.10;102329.09;5052209;28;45282;-76
2021/09/21 07:53:36;;;;;;;;;41.25;35.75;;;;;12.77;72.86;102319.44;5052073;28;45535;-78
2021/09/21 07:56:03;;;;;;;;;43.75;34.75;;;;;12.78;72.89;102314.94;5053267;28;46403;-78
2021/09/21 07:58:28;;;;;;;;;36.00;32.00;;;;;12.86;72.66;102326.53;5055025;28;46114;-76
2021/09/21 08:00:55;;;;;;;;;38.33;34.00;;;;;12.86;72.94;102323.03;5057074;28;45378;-76
2021/09/21 08:03:21;;;;;;;;;33.00;29.67;;;;;12.96;72.71;102334.47;5052794;28;45385;-76
2021/09/21 08:05:47;;;;;;;;;49.00;40.25;;;;;12.94;72.59;102317.78;5047875;28;45377;-76
2021/09/21 08:08:15;;;;;;;;;46.25;36.50;;;;;13.07;73.10;102329.91;5054444;28;45262;-75
2021/09/21 08:10:40;;;;;;;;;30.33;28.67;;;;;13.18;72.62;102340.38;5052430;28;45263;-75
2021/09/21 08:13:06;;;;;;;;;31.00;30.00;;;;;13.23;72.42;102342.59;5052723;28;45868;-75
2021/09/21 08:15:31;;;;;;;;;31.67;30.00;;;;;13.29;72.11;102343.81;5056147;28;45311;-78
2021/09/21 08:17:58;;;;;;;;;26.00;24.33;;;;;13.31;71.10;102339.97;5059605;28;47156;-78
2021/09/21 08:20:23;;;;;;;;;34.00;30.33;;;;;13.34;71.31;102336.16;5060049;28;45336;-79
2021/09/21 08:22:49;;;;;;;;;26.33;25.67;;;;;13.39;70.84;102333.88;5056211;28;45962;-78
2021/09/21 08:25:16;;;;;;;;;26.00;26.00;;;;;13.43;70.96;102337.06;5061403;28;45273;-78
2021/09/21 08:27:43;;;;;;;;;30.00;29.33;;;;;13.45;71.20;102330.59;5057086;28;45443;-77
2021/09/21 08:30:08;;;;;;;;;32.33;30.67;;;;;13.49;70.01;102344.47;5062715;28;45469;-79
2021/09/21 08:32:34;;;;;;;;;28.00;27.67;;;;;13.48;69.36;102346.31;5061578;28;45276;-79
2021/09/21 08:34:59;;;;;;;;;29.00;26.67;;;;;13.54;70.35;102352.06;5064928;28;46130;-78
2021/09/21 08:37:25;;;;;;;;;27.67;26.67;;;;;13.59;70.20;102349.78;5064283;28;46121;-79
2021/09/21 08:39:50;;;;;;;;;26.00;24.67;;;;;13.63;68.86;102351.97;5065842;28;45303;-77
2021/09/21 08:42:16;;;;;;;;;28.00;27.33;;;;;13.68;69.48;102356.00;5065894;28;45291;-78
2021/09/21 08:44:41;;;;;;;;;26.00;25.00;;;;;13.71;70.36;102351.19;5070499;28;45425;-78
2021/09/21 08:47:07;;;;;;;;;28.33;26.00;;;;;13.77;70.36;102352.41;5066165;28;46167;-78
2021/09/21 08:49:33;;;;;;;;;26.33;26.33;;;;;13.84;70.24;102356.13;5066942;28;45386;-79
2021/09/21 08:51:59;;;;;;;;;63.75;51.75;;;;;13.90;70.02;102352.00;5067130;28;45259;-79
2021/09/21 08:54:26;;;;;;;;;27.33;27.33;;;;;13.98;69.11;102360.03;5067810;28;46064;-79
2021/09/21 08:56:54;;;;;;;;;29.00;27.67;;;;;14.05;69.30;102354.06;5066383;28;46963;-78
2021/09/21 08:59:31;;;;;;;;;25.00;24.33;;;;;14.14;68.82;102363.84;5065520;28;45243;-78
2021/09/21 09:02:03;;;;;;;;;22.00;19.67;;;;;14.12;69.04;102357.78;5065705;28;45278;-78
2021/09/21 09:04:30;;;;;;;;;26.33;26.00;;;;;14.25;68.18;102365.41;5066673;28;45475;-78
2021/09/21 09:06:57;;;;;;;;;29.00;27.67;;;;;14.31;68.06;102362.06;5067995;28;46018;-78
2021/09/21 09:09:25;;;;;;;;;35.67;31.00;;;;;14.37;68.48;102368.63;5065157;28;45849;-79
2021/09/21 09:11:55;;;;;;;;;44.00;36.33;;;;;14.41;67.69;102364.63;5066426;28;45310;-78
2021/09/21 09:14:24;;;;;;;;;69.50;55.75;;;;;14.45;67.43;102362.47;5064436;28;45480;-78
2021/09/21 09:16:55;;;;;;;;;32.67;30.33;;;;;14.51;67.36;102365.34;5066164;28;45271;-78
2021/09/21 09:19:20;;;;;;;;;35.00;30.00;;;;;14.54;65.87;102361.50;5064532;28;45596;-78
2021/09/21 09:21:46;;;;;;;;;30.67;28.33;;;;;14.62;66.87;102360.72;5064629;28;45354;-78
2021/09/21 09:24:13;;;;;;;;;28.00;26.33;;;;;14.66;66.63;102370.06;5063816;28;45185;-79
2021/09/21 09:26:41;;;;;;;;;25.33;25.33;;;;;14.72;67.35;102366.75;5064878;28;45298;-78
2021/09/21 09:29:09;;;;;;;;;25.33;25.33;;;;;14.75;66.98;102366.44;5063503;28;45330;-78
2021/09/21 09:31:37;;;;;;;;;36.67;30.33;;;;;14.85;67.41;102379.69;5064948;28;45286;-78
2021/09/21 09:34:14;;;;;;;;;35.67;31.00;;;;;14.97;65.52;102380.25;5064205;28;45349;-79
2021/09/21 09:36:51;;;;;;;;;32.00;30.00;;;;;15.02;65.33;102379.75;5062725;28;46982;-78
2021/09/21 09:39:20;;;;;;;;;27.33;27.33;;;;;15.07;62.88;102374.75;5061988;28;45362;-77
2021/09/21 09:41:47;;;;;;;;;21.00;20.00;;;;;15.18;64.99;102387.00;5062144;28;45346;-77
2021/09/21 09:44:16;;;;;;;;;27.00;25.67;;;;;15.24;64.76;102386.31;5064609;28;45386;-78
2021/09/21 09:46:43;;;;;;;;;28.33;26.67;;;;;15.33;64.05;102391.69;5063949;28;46141;-78
2021/09/21 09:49:10;;;;;;;;;24.33;23.33;;;;;15.42;64.75;102392.53;5063809;28;45193;-79
2021/09/21 09:51:44;;;;;;;;;24.67;24.00;;;;;15.53;64.78;102386.84;5064621;28;45286;-78
2021/09/21 09:54:10;;;;;;;;;33.33;29.67;;;;;15.65;64.27;102392.72;5063779;28;45283;-78
2021/09/21 09:56:35;;;;;;;;;25.00;24.33;;;;;15.68;64.50;102396.91;5063933;28;45238;-78
2021/09/21 09:59:01;;;;;;;;;28.00;28.00;;;;;15.69;63.62;102382.50;5064343;28;45191;-78
2021/09/21 10:01:26;;;;;;;;;26.00;25.33;;;;;15.76;63.13;102386.19;5063393;28;45240;-78
2021/09/21 10:03:52;;;;;;;;;26.33;25.67;;;;;15.80;63.35;102375.97;5062808;28;45524;-78
2021/09/21 10:06:18;;;;;;;;;35.67;31.67;;;;;15.90;63.86;102392.72;5064810;28;45376;-78
2021/09/21 10:08:45;;;;;;;;;41.67;35.33;;;;;15.99;63.79;102385.53;5060954;28;45324;-77
2021/09/21 10:11:11;;;;;;;;;52.50;42.75;;;;;16.06;62.71;102381.16;5060824;28;45276;-79
2021/09/21 10:13:36;;;;;;;;;29.67;29.33;;;;;16.16;63.47;102389.00;5066658;28;45283;-78
2021/09/21 10:16:02;;;;;;;;;39.33;33.00;;;;;16.36;63.98;102396.66;5062565;28;45342;-78
2021/09/21 10:18:27;;;;;;;;;38.67;33.33;;;;;16.49;62.71;102388.88;5065027;28;45343;-77
2021/09/21 10:21:05;;;;;;;;;37.67;33.33;;;;;16.67;62.41;102393.16;5067639;28;44718;-76
2021/09/21 10:23:36;;;;;;;;;24.33;23.67;;;;;16.77;60.81;102387.59;5064758;28;45466;-78
2021/09/21 10:26:12;;;;;;;;;32.00;28.67;;;;;16.86;61.48;102383.88;5062953;28;45358;-78
2021/09/21 10:28:39;;;;;;;;;25.67;24.00;;;;;16.89;61.09;102382.69;5061444;28;45840;-77
2021/09/21 10:31:14;;;;;;;;;33.00;30.67;;;;;16.92;61.00;102393.06;5064283;28;45306;-77
2021/09/21 10:33:40;;;;;;;;;24.00;24.00;;;;;16.97;60.23;102400.59;5062112;28;46134;-78
2021/09/21 10:36:20;;;;;;;;;28.00;26.67;;;;;17.02;61.08;102393.69;5065779;28;45236;-76
2021/09/21 10:39:05;;;;;;;;;28.00;25.00;;;;;17.13;61.94;102394.31;5065543;28;45389;-76
2021/09/21 10:41:30;;;;;;;;;28.33;25.67;;;;;17.22;60.75;102395.94;5064606;28;45347;-78
2021/09/21 10:44:05;;;;;;;;;29.00;28.00;;;;;17.24;60.97;102399.25;5063212;28;45734;-77
2021/09/21 10:46:42;;;;;;;;;31.00;29.00;;;;;17.25;60.95;102400.13;5062430;28;46242;-78
2021/09/21 10:49:09;;;;;;;;;34.67;31.00;;;;;17.32;60.39;102397.53;5063754;28;45325;-78
2021/09/21 10:51:34;;;;;;;;;33.33;31.00;;;;;17.33;60.17;102396.53;5065722;28;45166;-78
2021/09/21 10:54:03;;;;;;;;;46.33;36.00;;;;;17.37;60.98;102398.69;5066275;28;45500;-77
2021/09/21 10:56:29;;;;;;;;;52.00;41.67;;;;;17.46;60.41;102395.94;5069631;28;45351;-78
2021/09/21 10:58:57;;;;;;;;;30.00;27.67;;;;;17.52;60.65;102401.44;5061438;28;45344;-77
2021/09/21 11:01:22;;;;;;;;;24.67;24.67;;;;;17.56;60.65;102398.34;5056064;28;45412;-78
2021/09/21 11:03:48;;;;;;;;;28.00;27.67;;;;;17.60;59.65;102399.69;5060601;28;45239;-77
2021/09/21 11:06:15;;;;;;;;;53.00;41.67;;;;;17.62;59.92;102401.16;5060621;28;46317;-77
2021/09/21 11:08:41;;;;;;;;;51.00;39.00;;;;;17.65;60.01;102399.97;5060226;28;45425;-78
2021/09/21 11:11:08;;;;;;;;;54.25;42.75;;;;;17.74;60.39;102396.19;5059560;28;45303;-78
2021/09/21 11:13:40;;;;;;;;;120.75;103.75;;;;;17.82;61.14;102391.75;5061008;28;45419;-77
2021/09/21 11:16:08;;;;;;;;;27.67;26.33;;;;;17.88;60.57;102389.19;5062280;28;46264;-78
2021/09/21 11:18:36;;;;;;;;;93.25;79.00;;;;;17.95;60.37;102396.50;5058648;28;45948;-77
2021/09/21 11:21:05;;;;;;;;;40.33;34.00;;;;;17.99;60.39;102392.44;5061989;28;45339;-78